Time;durP1;ratioP1;P1;durP2;ratioP2;P2;SDS_P1;SDS_P2;PMS_P1;PMS_P2;Temp;Humidity;BMP_temperature;BMP_pressure;BME280_temperature;BME280_humidity;BME280_pressure;Samples;Min_cycle;Max_cycle;Signal;HPM_P1;HPM_P2
2023/06/22 00:01:47;;;;;;;15.33;7.17;;;22.90;84.70;;;;;;5076473;28;20456;-69
2023/06/22 00:04:14;;;;;;;19.80;7.47;;;22.80;84.90;;;;;;5076422;28;20428;-70
2023/06/22 00:06:41;;;;;;;18.10;8.93;;;22.80;85.50;;;;;;5075992;28;20503;-70
2023/06/22 00:09:10;;;;;;;11.93;7.50;;;22.70;85.70;;;;;;5076022;28;20963;-70
2023/06/22 00:11:38;;;;;;;15.37;9.03;;;22.70;85.20;;;;;;5075844;28;20436;-70
2023/06/22 00:14:05;;;;;;;14.90;7.27;;;22.60;85.00;;;;;;5076154;28;20503;-70
2023/06/22 00:16:33;;;;;;;14.80;7.43;;;22.60;85.20;;;;;;5076060;28;20433;-70
2023/06/22 00:19:02;;;;;;;14.50;7.60;;;22.60;85.70;;;;;;5076006;28;20487;-70
2023/06/22 00:21:29;;;;;;;12.40;7.13;;;22.50;86.10;;;;;;5075589;28;20429;-71
2023/06/22 00:23:57;;;;;;;16.20;8.90;;;22.50;86.60;;;;;;5055874;28;20504;-70
2023/06/22 00:26:28;;;;;;;13.60;7.90;;;22.40;86.30;;;;;;5055710;28;20427;-70
2023/06/22 00:28:56;;;;;;;13.60;7.40;;;22.40;86.70;;;;;;5055966;28;20476;-70
2023/06/22 00:31:23;;;;;;;14.73;8.80;;;22.30;86.50;;;;;;5055465;28;20496;-70
2023/06/22 00:33:51;;;;;;;10.93;7.60;;;22.30;87.00;;;;;;5055354;28;20478;-69
2023/06/22 00:36:19;;;;;;;12.00;7.50;;;22.20;87.60;;;;;;5055568;28;20484;-70
2023/06/22 00:38:46;;;;;;;16.90;8.90;;;22.20;87.70;;;;;;5055915;28;20426;-70
2023/06/22 00:41:17;;;;;;;13.90;8.87;;;22.20;87.70;;;;;;5055810;28;20431;-70
2023/06/22 00:43:44;;;;;;;16.63;8.33;;;22.10;87.70;;;;;;5055491;28;20465;-69
2023/06/22 00:46:13;;;;;;;14.50;7.80;;;22.00;87.80;;;;;;5057515;28;20461;-69
2023/06/22 00:48:43;;;;;;;13.87;7.90;;;22.00;88.20;;;;;;5075297;28;20432;-70
2023/06/22 00:51:11;;;;;;;20.10;8.77;;;21.90;88.60;;;;;;5075930;28;20437;-69
2023/06/22 00:53:38;;;;;;;15.23;8.30;;;21.90;89.00;;;;;;5075288;28;20465;-70
2023/06/22 00:56:08;;;;;;;14.37;7.93;;;21.80;89.50;;;;;;5075571;28;20467;-70
2023/06/22 00:58:36;;;;;;;15.80;7.87;;;21.80;89.60;;;;;;5072301;28;20482;-70
2023/06/22 01:01:04;;;;;;;17.77;7.77;;;21.70;89.60;;;;;;5054927;28;20528;-69
2023/06/22 01:03:32;;;;;;;13.63;7.97;;;21.70;90.00;;;;;;5055092;28;20426;-70
2023/06/22 01:06:09;;;;;;;10.13;7.77;;;21.70;90.00;;;;;;5055391;28;20866;-70
2023/06/22 01:08:43;;;;;;;12.43;7.33;;;21.60;90.20;;;;;;5055423;28;20422;-70
2023/06/22 01:11:17;;;;;;;11.50;7.10;;;21.60;90.10;;;;;;5060009;28;20480;-70
2023/06/22 01:13:54;;;;;;;12.10;7.17;;;21.60;87.90;;;;;;5073362;28;20496;-69
2023/06/22 01:16:24;;;;;;;16.97;8.20;;;21.50;86.80;;;;;;5057957;28;20444;-70
2023/06/22 01:19:02;;;;;;;13.23;7.23;;;21.40;88.30;;;;;;5055188;28;20429;-70
2023/06/22 01:21:32;;;;;;;19.83;8.37;;;21.30;88.80;;;;;;5054793;28;20421;-70
2023/06/22 01:24:11;;;;;;;12.83;8.03;;;21.20;89.50;;;;;;5054863;28;21579;-69
2023/06/22 01:26:43;;;;;;;16.63;7.07;;;21.20;90.80;;;;;;5055110;28;20818;-70
2023/06/22 01:29:13;;;;;;;12.67;7.80;;;21.20;90.90;;;;;;5054793;28;20778;-70
2023/06/22 01:31:45;;;;;;;12.67;8.60;;;21.10;91.00;;;;;;5054826;28;20428;-69
2023/06/22 01:34:14;;;;;;;12.30;7.53;;;21.10;90.90;;;;;;5054820;28;20460;-70
2023/06/22 01:36:43;;;;;;;15.97;8.57;;;21.10;90.90;;;;;;5062302;28;20437;-69
2023/06/22 01:39:11;;;;;;;13.53;8.37;;;21.00;91.60;;;;;;5074656;28;20505;-69
2023/06/22 01:41:40;;;;;;;17.77;8.47;;;21.00;91.70;;;;;;5073958;28;20984;-70
2023/06/22 01:44:08;;;;;;;15.30;7.47;;;21.00;91.70;;;;;;5074178;28;20423;-70
2023/06/22 01:46:38;;;;;;;14.63;8.27;;;21.00;91.90;;;;;;5074117;28;20443;-70
2023/06/22 01:49:08;;;;;;;14.23;7.63;;;21.00;91.70;;;;;;5063436;28;20438;-70
2023/06/22 01:51:35;;;;;;;11.90;7.77;;;21.00;91.70;;;;;;5054469;28;20885;-70
2023/06/22 01:54:08;;;;;;;12.70;8.80;;;21.00;91.40;;;;;;5053751;28;20460;-69
2023/06/22 01:56:38;;;;;;;13.57;7.13;;;20.90;91.40;;;;;;5054480;28;20432;-70
2023/06/22 01:59:13;;;;;;;11.53;7.77;;;20.90;91.40;;;;;;5054252;28;20519;-69
2023/06/22 02:01:44;;;;;;;13.73;7.60;;;20.80;91.30;;;;;;5054769;28;20428;-70
2023/06/22 02:04:20;;;;;;;15.63;8.23;;;20.80;91.50;;;;;;5053476;28;20869;-70
2023/06/22 02:06:49;;;;;;;13.83;8.00;;;20.80;92.00;;;;;;5054344;28;20471;-70
2023/06/22 02:09:20;;;;;;;14.83;7.50;;;20.80;91.80;;;;;;5053663;28;20427;-70
2023/06/22 02:11:48;;;;;;;25.27;8.43;;;20.80;92.00;;;;;;5073207;28;20436;-69
2023/06/22 02:14:18;;;;;;;13.50;7.90;;;20.70;91.60;;;;;;5073750;28;20464;-70
2023/06/22 02:16:47;;;;;;;14.87;8.37;;;20.70;91.80;;;;;;5073960;28;20463;-70
2023/06/22 02:19:18;;;;;;;13.93;7.43;;;20.60;92.10;;;;;;5073424;28;20432;-70
2023/06/22 02:21:45;;;;;;;9.10;7.57;;;20.50;92.20;;;;;;5072315;28;20421;-70
2023/06/22 02:24:12;;;;;;;14.53;7.77;;;20.50;92.40;;;;;;5053994;28;20461;-70
2023/06/22 02:26:42;;;;;;;12.03;7.73;;;20.50;92.30;;;;;;5053707;28;20463;-70
2023/06/22 02:29:14;;;;;;;17.20;8.40;;;20.40;92.20;;;;;;5054033;28;20524;-70
2023/06/22 02:31:41;;;;;;;14.73;7.37;;;20.40;92.50;;;;;;5060064;28;20816;-70
2023/06/22 02:34:10;;;;;;;14.43;7.80;;;20.30;92.50;;;;;;5073293;28;20428;-70
2023/06/22 02:36:37;;;;;;;11.13;8.73;;;20.40;92.20;;;;;;5073703;28;20437;-69
2023/06/22 02:39:06;;;;;;;13.53;8.30;;;20.30;92.20;;;;;;5073115;28;20992;-70
2023/06/22 02:41:33;;;;;;;12.93;7.53;;;20.30;92.60;;;;;;5064095;28;20526;-70
2023/06/22 02:44:00;;;;;;;14.20;8.57;;;20.20;92.70;;;;;;5053598;28;20506;-70
2023/06/22 02:46:29;;;;;;;14.90;8.00;;;20.30;92.80;;;;;;5053330;28;20433;-70
2023/06/22 02:48:57;;;;;;;14.53;7.07;;;20.30;92.50;;;;;;5060566;28;20457;-70
2023/06/22 02:51:26;;;;;;;14.20;8.37;;;20.20;92.30;;;;;;5073015;28;20435;-70
2023/06/22 02:53:57;;;;;;;19.30;9.13;;;20.20;92.60;;;;;;5072363;28;20477;-69
2023/06/22 02:56:30;;;;;;;12.97;7.90;;;20.20;92.70;;;;;;5072975;28;20417;-70
2023/06/22 02:59:01;;;;;;;13.57;8.97;;;20.10;92.80;;;;;;5073132;28;20426;-70
2023/06/22 03:01:30;;;;;;;13.73;7.67;;;20.10;93.30;;;;;;5072686;28;20434;-70
2023/06/22 03:03:58;;;;;;;15.67;8.93;;;20.10;93.90;;;;;;5073236;28;20435;-70
2023/06/22 03:06:34;;;;;;;16.13;8.70;;;20.10;93.80;;;;;;5071962;28;20994;-72
2023/06/22 03:09:05;;;;;;;12.40;8.70;;;20.10;93.90;;;;;;5072703;28;20497;-72
2023/06/22 03:11:32;;;;;;;19.17;10.67;;;20.10;93.80;;;;;;5072820;28;20448;-72
2023/06/22 03:13:59;;;;;;;12.10;8.73;;;20.00;94.00;;;;;;5072785;28;20835;-72
2023/06/22 03:16:27;;;;;;;13.67;9.63;;;20.00;93.80;;;;;;5073855;28;20962;-72
2023/06/22 03:18:54;;;;;;;10.30;8.47;;;20.00;94.00;;;;;;5057040;28;20490;-72
2023/06/22 03:21:24;;;;;;;10.00;7.13;;;19.90;94.20;;;;;;5057186;28;20756;-72
2023/06/22 03:23:52;;;;;;;10.50;7.50;;;19.90;94.20;;;;;;5057147;28;20811;-72
2023/06/22 03:26:20;;;;;;;9.03;6.93;;;19.90;94.00;;;;;;5057357;28;20457;-71
2023/06/22 03:28:47;;;;;;;11.03;7.83;;;19.90;94.00;;;;;;5061718;28;20428;-72
2023/06/22 03:31:14;;;;;;;13.77;8.97;;;19.90;94.20;;;;;;5077049;28;20418;-73
2023/06/22 03:33:43;;;;;;;15.93;8.47;;;19.90;94.00;;;;;;5076540;28;20444;-72
2023/06/22 03:36:11;;;;;;;13.20;10.23;;;19.90;93.60;;;;;;5076713;28;20534;-69
2023/06/22 03:38:38;;;;;;;18.83;10.57;;;19.90;93.80;;;;;;5076118;28;20454;-70
2023/06/22 03:41:06;;;;;;;13.13;9.50;;;19.80;94.20;;;;;;5076339;28;20432;-69
2023/06/22 03:43:35;;;;;;;14.93;11.77;;;19.80;94.40;;;;;;5062236;28;20511;-70
2023/06/22 03:46:05;;;;;;;14.43;8.73;;;19.80;94.70;;;;;;5056486;28;20491;-69
2023/06/22 03:48:32;;;;;;;13.10;9.53;;;19.80;95.00;;;;;;5056333;28;20453;-70
2023/06/22 03:51:03;;;;;;;21.30;9.30;;;19.80;95.10;;;;;;5062366;28;20483;-70
2023/06/22 03:53:31;;;;;;;14.70;8.57;;;19.90;95.20;;;;;;5075804;28;20936;-69
2023/06/22 03:55:58;;;;;;;12.77;8.93;;;19.90;95.10;;;;;;5074444;28;20560;-69
2023/06/22 03:58:26;;;;;;;11.13;8.17;;;19.90;95.10;;;;;;5076343;28;20412;-69
2023/06/22 04:00:54;;;;;;;18.23;8.00;;;19.90;95.00;;;;;;5076216;28;20427;-70
2023/06/22 04:03:21;;;;;;;13.53;8.87;;;19.90;95.20;;;;;;5076269;28;21013;-70
2023/06/22 04:05:48;;;;;;;13.57;8.83;;;20.00;95.20;;;;;;5057742;28;20440;-70
2023/06/22 04:08:15;;;;;;;12.07;8.73;;;20.00;95.00;;;;;;5056083;28;20416;-70
2023/06/22 04:10:42;;;;;;;21.13;10.03;;;20.00;95.10;;;;;;5056178;28;20749;-71
2023/06/22 04:13:09;;;;;;;15.50;9.80;;;20.00;95.10;;;;;;5055519;28;20519;-70
2023/06/22 04:15:38;;;;;;;12.40;8.27;;;20.00;95.50;;;;;;5056100;28;20483;-70
2023/06/22 04:18:05;;;;;;;12.90;8.57;;;20.00;95.70;;;;;;5075690;28;20424;-70
2023/06/22 04:20:33;;;;;;;17.43;9.53;;;20.10;95.90;;;;;;5076136;28;20413;-70
2023/06/22 04:23:00;;;;;;;15.60;10.33;;;20.10;95.60;;;;;;5076173;28;20519;-70
2023/06/22 04:25:30;;;;;;;15.50;8.90;;;20.20;95.50;;;;;;5075115;28;20509;-69
2023/06/22 04:27:57;;;;;;;14.60;7.70;;;20.30;95.30;;;;;;5074340;28;20801;-70
2023/06/22 04:30:33;;;;;;;10.70;7.70;;;20.30;95.20;;;;;;5075102;28;20459;-70
2023/06/22 04:33:01;;;;;;;12.97;8.60;;;20.30;95.10;;;;;;5075706;28;20909;-70
2023/06/22 04:35:30;;;;;;;14.80;8.67;;;20.30;94.80;;;;;;5075477;28;20464;-70
2023/06/22 04:37:59;;;;;;;12.33;8.10;;;20.30;94.90;;;;;;5075898;28;20419;-70
2023/06/22 04:40:26;;;;;;;11.83;8.60;;;20.30;95.20;;;;;;5073445;28;20432;-70
2023/06/22 04:42:54;;;;;;;14.43;10.40;;;20.40;95.40;;;;;;5075239;28;20461;-70
2023/06/22 04:45:22;;;;;;;12.40;9.00;;;20.40;95.20;;;;;;5075602;28;20424;-70
2023/06/22 04:47:49;;;;;;;14.60;9.93;;;20.50;95.20;;;;;;5066133;28;20911;-70
2023/06/22 04:50:20;;;;;;;15.97;9.23;;;20.50;95.20;;;;;;5055065;28;20434;-70
2023/06/22 04:52:47;;;;;;;14.50;9.00;;;20.60;95.10;;;;;;5054809;28;20470;-70
2023/06/22 04:55:18;;;;;;;11.37;8.10;;;20.60;95.30;;;;;;5054684;28;20530;-70
2023/06/22 04:57:48;;;;;;;9.87;8.33;;;20.60;95.20;;;;;;5058028;28;20451;-70
2023/06/22 05:00:17;;;;;;;12.70;8.83;;;20.70;95.60;;;;;;5043688;28;20432;-70
2023/06/22 05:02:45;;;;;;;15.57;8.10;;;20.70;95.60;;;;;;5055051;28;20469;-70
2023/06/22 05:05:14;;;;;;;11.37;8.27;;;20.80;95.40;;;;;;5054642;28;20521;-70
2023/06/22 05:07:44;;;;;;;12.50;8.70;;;20.80;95.40;;;;;;5054594;28;20841;-71
2023/06/22 05:10:12;;;;;;;16.97;9.27;;;20.80;95.40;;;;;;5069442;28;20441;-70
2023/06/22 05:12:39;;;;;;;13.40;9.03;;;20.90;95.60;;;;;;5062915;28;20433;-70
2023/06/22 05:15:08;;;;;;;11.60;7.60;;;20.90;95.40;;;;;;5054463;28;20559;-71
2023/06/22 05:17:42;;;;;;;11.80;9.00;;;20.90;94.90;;;;;;5054202;28;20491;-70
2023/06/22 05:20:11;;;;;;;13.50;9.20;;;21.00;95.00;;;;;;5054232;28;20430;-70
2023/06/22 05:22:44;;;;;;;15.27;8.20;;;21.00;94.80;;;;;;5063895;28;20793;-70
2023/06/22 05:25:12;;;;;;;22.30;8.83;;;20.90;94.70;;;;;;5074632;28;20433;-70
2023/06/22 05:27:40;;;;;;;13.37;8.30;;;20.90;95.00;;;;;;5068540;28;20502;-70
2023/06/22 05:30:08;;;;;;;12.87;8.80;;;20.90;95.30;;;;;;5059420;28;20454;-71
2023/06/22 05:32:35;;;;;;;19.13;10.77;;;21.10;95.50;;;;;;5054155;28;20440;-70
2023/06/22 05:35:03;;;;;;;15.10;9.37;;;21.20;95.40;;;;;;5053467;28;20944;-74
2023/06/22 05:37:30;;;;;;;14.80;8.73;;;21.20;95.60;;;;;;5050574;28;20445;-70
2023/06/22 05:39:58;;;;;;;13.77;9.93;;;21.30;96.00;;;;;;5053852;28;20469;-70
2023/06/22 05:42:26;;;;;;;17.10;8.50;;;21.40;96.00;;;;;;5053172;28;20943;-70
2023/06/22 05:44:53;;;;;;;14.07;8.87;;;21.50;95.80;;;;;;5053079;28;20939;-70
2023/06/22 05:47:22;;;;;;;13.90;9.23;;;21.60;95.50;;;;;;5054822;28;20435;-70
2023/06/22 05:49:49;;;;;;;13.97;9.30;;;21.60;95.40;;;;;;5053389;28;20479;-70
2023/06/22 05:52:16;;;;;;;13.43;8.30;;;21.70;95.20;;;;;;5054547;28;20446;-70
2023/06/22 05:54:43;;;;;;;15.77;8.70;;;21.80;95.30;;;;;;5062534;28;20452;-70
2023/06/22 05:57:11;;;;;;;14.10;8.23;;;21.90;95.40;;;;;;5044154;28;20505;-70
2023/06/22 05:59:38;;;;;;;13.43;9.10;;;22.00;95.00;;;;;;5053755;28;20760;-71
2023/06/22 06:02:06;;;;;;;13.43;9.30;;;22.10;94.90;;;;;;5057281;28;20515;-70
2023/06/22 06:04:33;;;;;;;11.60;8.83;;;22.20;94.90;;;;;;5052947;28;20430;-70
2023/06/22 06:07:01;;;;;;;19.43;9.50;;;22.30;94.90;;;;;;5056635;28;20516;-72
2023/06/22 06:09:28;;;;;;;16.63;9.13;;;22.40;94.70;;;;;;5054993;28;20842;-70
2023/06/22 06:11:58;;;;;;;14.30;8.60;;;22.50;94.70;;;;;;5054631;28;20465;-70
2023/06/22 06:14:26;;;;;;;19.67;9.30;;;22.60;94.60;;;;;;5066774;28;20436;-70
2023/06/22 06:16:53;;;;;;;16.87;8.80;;;22.60;94.60;;;;;;5073400;28;20473;-70
2023/06/22 06:19:22;;;;;;;12.03;7.53;;;22.70;94.80;;;;;;5061626;28;20911;-70
2023/06/22 06:21:50;;;;;;;16.87;9.80;;;22.80;94.00;;;;;;5053907;28;20459;-71
2023/06/22 06:24:18;;;;;;;11.93;7.93;;;22.90;94.00;;;;;;5054145;28;20525;-70
2023/06/22 06:26:46;;;;;;;12.73;8.47;;;23.00;93.90;;;;;;5053801;28;20435;-70
2023/06/22 06:29:16;;;;;;;14.13;8.93;;;23.10;93.10;;;;;;5052529;28;20435;-71
2023/06/22 06:31:48;;;;;;;15.63;9.03;;;23.00;92.50;;;;;;5053562;28;20513;-70
2023/06/22 06:34:16;;;;;;;11.00;7.80;;;23.10;93.00;;;;;;5053883;28;20427;-70
2023/06/22 06:36:44;;;;;;;14.90;8.90;;;23.20;92.40;;;;;;5053464;28;20523;-70
2023/06/22 06:39:16;;;;;;;11.90;7.47;;;23.30;92.50;;;;;;5053878;28;20520;-70
2023/06/22 06:41:43;;;;;;;13.80;7.83;;;23.40;92.70;;;;;;5053311;28;20468;-71
2023/06/22 06:44:12;;;;;;;11.47;8.23;;;23.50;92.30;;;;;;5053671;28;21131;-70
2023/06/22 06:46:42;;;;;;;16.87;8.60;;;23.60;91.90;;;;;;5053424;28;20462;-69
2023/06/22 06:49:14;;;;;;;12.73;7.80;;;23.60;91.30;;;;;;5053761;28;20443;-70
2023/06/22 06:51:42;;;;;;;12.33;8.27;;;23.70;91.30;;;;;;5053387;28;20764;-70
2023/06/22 06:54:10;;;;;;;14.70;8.00;;;23.80;91.30;;;;;;5053772;28;20440;-70
2023/06/22 06:56:38;;;;;;;11.37;8.67;;;23.90;91.20;;;;;;5053244;28;20470;-69
2023/06/22 06:59:11;;;;;;;16.13;8.53;;;24.10;90.40;;;;;;5053344;28;20986;-69
2023/06/22 07:01:38;;;;;;;15.90;10.00;;;24.10;90.30;;;;;;5053762;28;20474;-72
2023/06/22 07:04:06;;;;;;;20.50;8.80;;;24.20;89.40;;;;;;5053599;28;20436;-70
2023/06/22 07:06:34;;;;;;;17.07;8.10;;;24.30;89.00;;;;;;5053720;28;20521;-70
2023/06/22 07:09:03;;;;;;;14.50;8.80;;;24.30;88.70;;;;;;5053539;28;20429;-69
2023/06/22 07:11:30;;;;;;;15.83;8.80;;;24.40;88.10;;;;;;5053503;28;20493;-70
2023/06/22 07:13:57;;;;;;;17.00;8.50;;;24.50;88.60;;;;;;5053560;28;20432;-69
2023/06/22 07:16:25;;;;;;;16.13;8.80;;;24.60;89.50;;;;;;5053309;28;20537;-70
2023/06/22 07:18:52;;;;;;;12.97;7.93;;;24.70;90.10;;;;;;5053662;28;20438;-69
2023/06/22 07:21:19;;;;;;;18.80;8.90;;;24.90;90.10;;;;;;5053114;28;20478;-70
2023/06/22 07:23:54;;;;;;;16.30;8.60;;;25.00;90.00;;;;;;5053369;28;20463;-70
2023/06/22 07:26:22;;;;;;;21.87;8.90;;;25.10;89.30;;;;;;5053495;28;20423;-70
2023/06/22 07:28:56;;;;;;;15.73;8.23;;;25.30;88.00;;;;;;5053436;28;20436;-70
2023/06/22 07:31:25;;;;;;;13.80;7.77;;;25.30;87.20;;;;;;5053326;28;20429;-69
2023/06/22 07:33:57;;;;;;;10.37;7.50;;;25.50;86.90;;;;;;5053289;28;20440;-70
2023/06/22 07:36:30;;;;;;;19.20;8.23;;;25.60;86.80;;;;;;5052915;28;20944;-70
2023/06/22 07:38:59;;;;;;;14.27;8.50;;;25.80;86.60;;;;;;5052946;28;20436;-70
2023/06/22 07:41:32;;;;;;;13.77;7.80;;;26.00;85.80;;;;;;5052866;28;20467;-70
2023/06/22 07:43:59;;;;;;;13.60;6.77;;;26.10;84.60;;;;;;5053398;28;20808;-70
2023/06/22 07:46:30;;;;;;;13.30;7.97;;;26.20;83.00;;;;;;5052792;28;20444;-72
2023/06/22 07:48:57;;;;;;;17.13;7.97;;;26.30;81.70;;;;;;5053384;28;20417;-70
2023/06/22 07:51:24;;;;;;;13.67;9.03;;;26.40;80.50;;;;;;5053174;28;20429;-69
2023/06/22 07:53:51;;;;;;;10.87;7.70;;;26.60;80.30;;;;;;5053253;28;20440;-70
2023/06/22 07:56:20;;;;;;;18.90;8.00;;;26.60;80.10;;;;;;5053080;28;20522;-69
2023/06/22 07:58:53;;;;;;;15.30;9.47;;;26.70;78.90;;;;;;5053102;28;20465;-70
2023/06/22 08:01:21;;;;;;;14.80;8.67;;;26.80;76.70;;;;;;5053201;28;20424;-70
2023/06/22 08:03:49;;;;;;;17.93;8.00;;;26.80;76.90;;;;;;5055657;28;20492;-69
2023/06/22 08:06:18;;;;;;;11.60;7.43;;;26.90;76.90;;;;;;5056414;28;20487;-69
2023/06/22 08:08:47;;;;;;;14.43;8.17;;;27.00;76.10;;;;;;5056632;28;20798;-70
2023/06/22 08:11:15;;;;;;;14.80;7.20;;;27.00;76.60;;;;;;5056558;28;20436;-70
2023/06/22 08:13:47;;;;;;;13.50;7.83;;;27.20;77.20;;;;;;5056223;28;20434;-70
2023/06/22 08:16:14;;;;;;;13.40;8.47;;;27.30;76.60;;;;;;5056449;28;20857;-69
2023/06/22 08:18:46;;;;;;;12.70;9.37;;;27.40;75.80;;;;;;5056162;28;20433;-70
2023/06/22 08:21:13;;;;;;;15.40;8.93;;;27.50;75.40;;;;;;5056215;28;20449;-69
2023/06/22 08:23:45;;;;;;;15.67;8.83;;;27.60;75.30;;;;;;5056339;28;20512;-69
2023/06/22 08:26:13;;;;;;;14.30;7.50;;;27.80;75.70;;;;;;5056534;28;20872;-69
2023/06/22 08:28:42;;;;;;;11.70;7.57;;;27.90;74.60;;;;;;5055970;28;20472;-70
2023/06/22 08:31:12;;;;;;;12.30;8.00;;;28.00;74.50;;;;;;5055874;28;20768;-69
2023/06/22 08:33:40;;;;;;;17.43;7.80;;;28.20;74.00;;;;;;5056526;28;20487;-72
2023/06/22 08:36:13;;;;;;;13.53;8.40;;;28.30;73.20;;;;;;5056068;28;20469;-70
2023/06/22 08:38:45;;;;;;;13.20;7.50;;;28.40;73.40;;;;;;5055857;28;20915;-69
2023/06/22 08:41:14;;;;;;;13.07;7.50;;;28.60;73.30;;;;;;5056239;28;20421;-70
2023/06/22 08:43:41;;;;;;;11.93;7.90;;;28.60;72.40;;;;;;5056280;28;20497;-69
2023/06/22 08:46:10;;;;;;;15.23;8.60;;;28.80;72.00;;;;;;5056029;28;20437;-69
2023/06/22 08:48:37;;;;;;;14.17;8.10;;;28.90;71.90;;;;;;5055890;28;20429;-69
2023/06/22 08:51:06;;;;;;;18.30;8.30;;;29.10;72.40;;;;;;5055501;28;20487;-70
2023/06/22 08:53:34;;;;;;;14.80;8.67;;;29.20;70.80;;;;;;5055447;28;20430;-73
2023/06/22 08:56:01;;;;;;;16.23;8.10;;;29.30;69.60;;;;;;5055655;28;20552;-70
2023/06/22 08:58:31;;;;;;;15.03;8.87;;;29.40;69.20;;;;;;5055757;28;20954;-70
2023/06/22 09:01:00;;;;;;;10.93;7.70;;;29.50;69.40;;;;;;5055177;28;20459;-69
2023/06/22 09:03:29;;;;;;;13.93;8.27;;;29.60;69.50;;;;;;5055548;28;20480;-70
2023/06/22 09:05:58;;;;;;;15.57;8.30;;;29.80;69.80;;;;;;5055249;28;20489;-69
2023/06/22 09:08:26;;;;;;;15.70;8.50;;;30.00;68.10;;;;;;5055426;28;20438;-69
2023/06/22 09:10:55;;;;;;;14.50;8.60;;;30.10;66.30;;;;;;5055360;28;20826;-69
2023/06/22 09:13:27;;;;;;;14.30;8.33;;;30.20;65.90;;;;;;5055179;28;20430;-70
2023/06/22 09:15:55;;;;;;;18.90;8.73;;;30.30;65.90;;;;;;5055342;28;20421;-69
2023/06/22 09:18:23;;;;;;;15.73;8.80;;;30.50;65.40;;;;;;5054942;28;20473;-69
2023/06/22 09:20:51;;;;;;;20.07;8.57;;;30.60;64.80;;;;;;5055112;28;20429;-69
2023/06/22 09:23:18;;;;;;;15.10;7.87;;;30.90;64.90;;;;;;5055242;28;20433;-69
2023/06/22 09:25:47;;;;;;;14.07;8.50;;;31.00;63.50;;;;;;5055065;28;20477;-72
2023/06/22 09:28:15;;;;;;;15.60;8.33;;;31.20;62.30;;;;;;5054741;28;20433;-69
2023/06/22 09:30:43;;;;;;;20.53;8.37;;;31.30;59.90;;;;;;5054550;28;20465;-71
2023/06/22 09:33:11;;;;;;;13.77;8.30;;;31.30;58.80;;;;;;5054584;28;20512;-70
2023/06/22 09:35:42;;;;;;;12.80;7.83;;;31.30;58.50;;;;;;5054526;28;20461;-69
2023/06/22 09:38:11;;;;;;;13.90;7.60;;;31.30;58.60;;;;;;5054996;28;20489;-69
2023/06/22 09:40:39;;;;;;;15.60;7.63;;;31.30;58.80;;;;;;5054432;28;20887;-69
2023/06/22 09:43:13;;;;;;;15.33;8.80;;;31.40;59.20;;;;;;5054195;28;20971;-69
2023/06/22 09:45:40;;;;;;;12.23;7.50;;;31.60;59.10;;;;;;5054685;28;20714;-70
2023/06/22 09:48:07;;;;;;;16.70;7.40;;;31.70;57.50;;;;;;5054225;28;20433;-70
2023/06/22 09:50:43;;;;;;;14.60;8.10;;;31.70;57.40;;;;;;5054196;28;20444;-69
2023/06/22 09:53:12;;;;;;;13.33;7.67;;;31.80;58.00;;;;;;5054721;28;20461;-70
2023/06/22 09:55:39;;;;;;;13.93;7.10;;;31.90;57.60;;;;;;5054145;28;20925;-70
2023/06/22 09:58:10;;;;;;;19.40;7.63;;;32.10;57.50;;;;;;5054253;28;20790;-69
2023/06/22 10:00:38;;;;;;;18.37;8.70;;;32.20;56.70;;;;;;5054355;28;20487;-69
2023/06/22 10:03:05;;;;;;;13.07;9.50;;;32.30;56.90;;;;;;5054317;28;20437;-69
2023/06/22 10:05:32;;;;;;;12.40;8.60;;;32.40;55.90;;;;;;5054286;28;20436;-70
2023/06/22 10:08:01;;;;;;;17.80;8.00;;;32.40;55.30;;;;;;5053971;28;20487;-69
2023/06/22 10:10:29;;;;;;;14.37;8.47;;;32.50;55.50;;;;;;5053752;28;20911;-69
2023/06/22 10:13:08;;;;;;;19.80;8.60;;;32.50;55.20;;;;;;5053687;28;20838;-69
2023/06/22 10:15:39;;;;;;;15.63;8.30;;;32.60;54.90;;;;;;5053883;28;20466;-70
2023/06/22 10:18:06;;;;;;;13.47;8.60;;;32.60;55.30;;;;;;5053797;28;20819;-69
2023/06/22 10:20:35;;;;;;;14.83;8.33;;;32.60;55.60;;;;;;5053904;28;20429;-69
2023/06/22 10:23:03;;;;;;;11.40;8.60;;;32.60;55.10;;;;;;5053865;28;20823;-69
2023/06/22 10:25:31;;;;;;;19.87;8.20;;;32.60;54.60;;;;;;5052855;28;20487;-70
2023/06/22 10:28:00;;;;;;;10.73;7.67;;;32.60;54.40;;;;;;5053667;28;20433;-69
2023/06/22 10:30:28;;;;;;;11.17;7.87;;;32.70;54.60;;;;;;5053604;28;20437;-69
2023/06/22 10:32:55;;;;;;;16.20;7.77;;;32.80;54.10;;;;;;5053392;28;20975;-70
2023/06/22 10:35:31;;;;;;;11.90;7.57;;;32.90;53.60;;;;;;5053641;28;20433;-70
2023/06/22 10:37:58;;;;;;;14.00;8.43;;;32.90;53.00;;;;;;5053405;28;20492;-70
2023/06/22 10:40:31;;;;;;;14.00;8.23;;;32.90;53.00;;;;;;5053465;28;20879;-69
2023/06/22 10:43:05;;;;;;;13.03;7.30;;;32.90;53.50;;;;;;5052824;28;20504;-71
2023/06/22 10:45:39;;;;;;;13.27;7.63;;;33.00;52.50;;;;;;5053085;28;20469;-69
2023/06/22 10:48:06;;;;;;;13.13;8.10;;;33.00;52.70;;;;;;5053033;28;20426;-72
2023/06/22 10:50:33;;;;;;;17.60;9.53;;;33.10;52.10;;;;;;5053672;28;20552;-70
2023/06/22 10:53:01;;;;;;;14.83;9.23;;;33.20;51.30;;;;;;5053171;28;20441;-69
2023/06/22 10:55:32;;;;;;;14.50;8.30;;;33.20;51.80;;;;;;5053707;28;20821;-70
2023/06/22 10:57:59;;;;;;;16.20;8.20;;;33.20;53.20;;;;;;5053464;28;20518;-69
2023/06/22 11:00:30;;;;;;;20.83;7.70;;;33.40;53.20;;;;;;5053378;28;20437;-69
2023/06/22 11:02:58;;;;;;;14.30;7.70;;;33.50;52.40;;;;;;5053558;28;20811;-69
2023/06/22 11:05:27;;;;;;;14.27;7.43;;;33.60;51.60;;;;;;5052886;28;20494;-69
2023/06/22 11:08:03;;;;;;;18.83;8.47;;;33.70;50.40;;;;;;5053260;28;20430;-69
2023/06/22 11:10:31;;;;;;;15.50;8.10;;;33.80;50.60;;;;;;5053451;28;20482;-70
2023/06/22 11:13:00;;;;;;;10.80;7.23;;;33.90;50.80;;;;;;5053028;28;20840;-69
2023/06/22 11:18:13;;;;;;;21.00;8.10;;;34.00;47.90;;;;;;5053070;28;20461;-69
2023/06/22 11:20:45;;;;;;;15.77;9.43;;;34.00;48.30;;;;;;5052904;28;20460;-69
2023/06/22 11:23:14;;;;;;;17.00;7.67;;;34.10;49.20;;;;;;5053640;28;20426;-69
2023/06/22 11:25:44;;;;;;;13.57;6.60;;;34.20;48.30;;;;;;5053137;28;20487;-69
2023/06/22 11:28:11;;;;;;;18.93;8.03;;;34.20;47.70;;;;;;5053280;28;20425;-69
2023/06/22 11:30:42;;;;;;;17.40;6.83;;;34.30;47.20;;;;;;5053201;28;20891;-69
2023/06/22 11:33:12;;;;;;;15.73;8.47;;;34.30;46.80;;;;;;5053333;28;20425;-69
2023/06/22 11:35:39;;;;;;;16.67;8.17;;;34.30;46.80;;;;;;5052706;28;20973;-69
2023/06/22 11:38:10;;;;;;;13.20;8.07;;;34.40;47.20;;;;;;5056278;28;20509;-69
2023/06/22 11:40:42;;;;;;;18.90;8.47;;;34.50;47.60;;;;;;5057181;28;20418;-69
2023/06/22 11:43:16;;;;;;;11.90;7.30;;;34.70;47.50;;;;;;5056513;28;20488;-69
2023/06/22 11:45:47;;;;;;;25.43;8.43;;;34.80;45.70;;;;;;5056400;28;20429;-69
2023/06/22 11:48:16;;;;;;;22.40;7.80;;;34.90;45.20;;;;;;5056772;28;20882;-69
2023/06/22 11:50:44;;;;;;;18.57;7.50;;;35.00;45.50;;;;;;5056505;28;20431;-69
2023/06/22 11:53:17;;;;;;;19.27;8.10;;;35.20;44.70;;;;;;5056719;28;20494;-69
2023/06/22 11:55:45;;;;;;;19.27;8.00;;;35.30;45.20;;;;;;5057113;28;20487;-69
2023/06/22 11:58:14;;;;;;;16.57;8.00;;;35.40;45.30;;;;;;5056657;28;20555;-69
2023/06/22 12:00:41;;;;;;;20.50;8.20;;;35.50;45.20;;;;;;5056121;28;20490;-69
2023/06/22 12:03:09;;;;;;;17.23;7.40;;;35.60;44.80;;;;;;5056210;28;20429;-69
2023/06/22 12:05:40;;;;;;;15.70;7.30;;;35.70;44.50;;;;;;5056125;28;20919;-69
2023/06/22 12:08:09;;;;;;;15.87;7.70;;;35.80;44.10;;;;;;5056803;28;20425;-69
2023/06/22 12:10:38;;;;;;;21.00;8.47;;;35.80;43.10;;;;;;5056112;28;20437;-69
2023/06/22 12:13:11;;;;;;;15.27;7.83;;;35.90;42.70;;;;;;5056213;28;20429;-70
2023/06/22 12:15:43;;;;;;;24.93;8.10;;;36.00;41.20;;;;;;5056140;28;20516;-69
2023/06/22 12:18:15;;;;;;;13.07;7.63;;;36.00;40.80;;;;;;5056188;28;20457;-70
2023/06/22 12:20:46;;;;;;;16.53;8.33;;;36.00;40.40;;;;;;5055936;28;20508;-69
2023/06/22 12:23:16;;;;;;;12.53;7.60;;;35.90;40.20;;;;;;5056169;28;20449;-69
2023/06/22 12:25:46;;;;;;;18.27;8.17;;;35.90;39.90;;;;;;5056136;28;20425;-69
2023/06/22 12:28:18;;;;;;;16.80;7.53;;;35.90;40.10;;;;;;5056065;28;20421;-69
2023/06/22 12:30:47;;;;;;;18.20;6.60;;;35.90;39.80;;;;;;5055508;28;20417;-69
2023/06/22 12:36:03;;;;;;;11.43;7.40;;;35.90;40.00;;;;;;5055347;28;20503;-70
2023/06/22 12:38:30;;;;;;;22.90;8.33;;;35.90;40.30;;;;;;5055896;28;20468;-69
2023/06/22 12:41:02;;;;;;;15.27;7.87;;;35.80;39.20;;;;;;5055363;28;20460;-69
2023/06/22 12:43:30;;;;;;;19.30;8.40;;;35.80;38.80;;;;;;5055580;28;20468;-69
2023/06/22 12:46:12;;;;;;;12.13;8.33;;;35.80;39.40;;;;;;5055218;28;20444;-69
2023/06/22 12:48:47;;;;;;;12.57;7.50;;;35.80;39.70;;;;;;5052559;28;20445;-69
2023/06/22 12:51:22;;;;;;;14.33;8.40;;;35.90;39.20;;;;;;5055737;28;20490;-69